sensor_id;sensor_type;location;lat;lon;timestamp;P1;durP1;ratioP1;P2;durP2;ratioP2
39300;SDS011;25019;42.626;23.380;2023-08-08T00:01:16;0.90;;;0.90;;
39300;SDS011;25019;42.626;23.380;2023-08-08T00:03:41;1.60;;;0.90;;
39300;SDS011;25019;42.626;23.380;2023-08-08T00:06:07;0.90;;;0.90;;
39300;SDS011;25019;42.626;23.380;2023-08-08T00:08:33;1.17;;;1.07;;
39300;SDS011;25019;42.626;23.380;2023-08-08T00:10:58;2.20;;;1.40;;
39300;SDS011;25019;42.626;23.380;2023-08-08T00:13:24;1.50;;;1.40;;
39300;SDS011;25019;42.626;23.380;2023-08-08T00:15:50;3.77;;;1.50;;
39300;SDS011;25019;42.626;23.380;2023-08-08T00:18:15;1.63;;;1.53;;
39300;SDS011;25019;42.626;23.380;2023-08-08T00:20:41;1.40;;;1.30;;
39300;SDS011;25019;42.626;23.380;2023-08-08T00:23:06;1.73;;;1.43;;
39300;SDS011;25019;42.626;23.380;2023-08-08T00:25:32;1.40;;;1.20;;
39300;SDS011;25019;42.626;23.380;2023-08-08T00:27:58;1.47;;;0.90;;
39300;SDS011;25019;42.626;23.380;2023-08-08T00:30:23;1.30;;;1.20;;
39300;SDS011;25019;42.626;23.380;2023-08-08T00:32:49;1.40;;;1.30;;
39300;SDS011;25019;42.626;23.380;2023-08-08T00:35:14;1.33;;;1.20;;
39300;SDS011;25019;42.626;23.380;2023-08-08T00:37:40;1.37;;;1.20;;
39300;SDS011;25019;42.626;23.380;2023-08-08T00:40:06;1.20;;;1.10;;
39300;SDS011;25019;42.626;23.380;2023-08-08T00:42:32;1.20;;;1.10;;
39300;SDS011;25019;42.626;23.380;2023-08-08T00:44:58;1.30;;;1.07;;
39300;SDS011;25019;42.626;23.380;2023-08-08T00:47:29;0.90;;;0.83;;
39300;SDS011;25019;42.626;23.380;2023-08-08T00:49:55;1.73;;;1.10;;
39300;SDS011;25019;42.626;23.380;2023-08-08T00:52:22;1.03;;;1.00;;
39300;SDS011;25019;42.626;23.380;2023-08-08T00:54:47;1.30;;;1.20;;
39300;SDS011;25019;42.626;23.380;2023-08-08T00:57:13;1.63;;;1.30;;
39300;SDS011;25019;42.626;23.380;2023-08-08T00:59:39;1.40;;;1.30;;
39300;SDS011;25019;42.626;23.380;2023-08-08T01:02:05;2.07;;;1.70;;
39300;SDS011;25019;42.626;23.380;2023-08-08T01:04:31;1.77;;;1.13;;
39300;SDS011;25019;42.626;23.380;2023-08-08T01:07:15;2.20;;;1.20;;
39300;SDS011;25019;42.626;23.380;2023-08-08T01:09:59;1.33;;;1.23;;
39300;SDS011;25019;42.626;23.380;2023-08-08T01:12:37;1.43;;;1.33;;
39300;SDS011;25019;42.626;23.380;2023-08-08T01:15:07;1.20;;;1.10;;
39300;SDS011;25019;42.626;23.380;2023-08-08T01:17:35;1.10;;;1.10;;
39300;SDS011;25019;42.626;23.380;2023-08-08T01:20:04;1.10;;;1.00;;
39300;SDS011;25019;42.626;23.380;2023-08-08T01:22:35;1.20;;;1.10;;
39300;SDS011;25019;42.626;23.380;2023-08-08T01:25:04;2.87;;;1.10;;
39300;SDS011;25019;42.626;23.380;2023-08-08T01:27:30;1.80;;;1.13;;
39300;SDS011;25019;42.626;23.380;2023-08-08T01:29:56;1.50;;;1.10;;
39300;SDS011;25019;42.626;23.380;2023-08-08T01:32:22;1.03;;;1.00;;
39300;SDS011;25019;42.626;23.380;2023-08-08T01:34:48;0.90;;;0.83;;
39300;SDS011;25019;42.626;23.380;2023-08-08T01:37:15;1.10;;;1.00;;
39300;SDS011;25019;42.626;23.380;2023-08-08T01:39:45;1.07;;;0.90;;
39300;SDS011;25019;42.626;23.380;2023-08-08T01:42:12;1.27;;;1.00;;
39300;SDS011;25019;42.626;23.380;2023-08-08T01:44:40;0.97;;;0.93;;
39300;SDS011;25019;42.626;23.380;2023-08-08T01:47:07;1.00;;;1.00;;
39300;SDS011;25019;42.626;23.380;2023-08-08T01:49:35;1.17;;;1.07;;
39300;SDS011;25019;42.626;23.380;2023-08-08T01:52:01;1.40;;;1.30;;
39300;SDS011;25019;42.626;23.380;2023-08-08T01:54:26;1.40;;;1.23;;
39300;SDS011;25019;42.626;23.380;2023-08-08T01:56:52;2.23;;;1.43;;
39300;SDS011;25019;42.626;23.380;2023-08-08T01:59:18;1.37;;;1.23;;
39300;SDS011;25019;42.626;23.380;2023-08-08T02:01:43;1.30;;;1.20;;
39300;SDS011;25019;42.626;23.380;2023-08-08T02:04:09;1.20;;;1.10;;
39300;SDS011;25019;42.626;23.380;2023-08-08T02:06:35;1.47;;;1.37;;
39300;SDS011;25019;42.626;23.380;2023-08-08T02:09:00;1.30;;;1.20;;
39300;SDS011;25019;42.626;23.380;2023-08-08T02:11:26;1.20;;;1.10;;
39300;SDS011;25019;42.626;23.380;2023-08-08T02:13:52;2.53;;;1.37;;
39300;SDS011;25019;42.626;23.380;2023-08-08T02:16:18;2.30;;;1.20;;
39300;SDS011;25019;42.626;23.380;2023-08-08T02:18:43;1.47;;;1.37;;
39300;SDS011;25019;42.626;23.380;2023-08-08T02:21:09;1.50;;;1.40;;
39300;SDS011;25019;42.626;23.380;2023-08-08T02:23:35;1.57;;;1.30;;
39300;SDS011;25019;42.626;23.380;2023-08-08T02:26:01;2.50;;;1.63;;
39300;SDS011;25019;42.626;23.380;2023-08-08T02:28:27;2.63;;;1.60;;
39300;SDS011;25019;42.626;23.380;2023-08-08T02:30:53;1.20;;;1.10;;
39300;SDS011;25019;42.626;23.380;2023-08-08T02:33:19;2.77;;;1.57;;
39300;SDS011;25019;42.626;23.380;2023-08-08T02:35:44;2.10;;;1.30;;
39300;SDS011;25019;42.626;23.380;2023-08-08T02:38:10;2.20;;;1.43;;
39300;SDS011;25019;42.626;23.380;2023-08-08T02:40:39;1.60;;;1.50;;
39300;SDS011;25019;42.626;23.380;2023-08-08T02:43:05;1.60;;;1.40;;
39300;SDS011;25019;42.626;23.380;2023-08-08T02:45:31;1.40;;;1.30;;
39300;SDS011;25019;42.626;23.380;2023-08-08T02:47:56;1.97;;;1.83;;
39300;SDS011;25019;42.626;23.380;2023-08-08T02:50:23;3.37;;;1.70;;
39300;SDS011;25019;42.626;23.380;2023-08-08T02:52:48;2.53;;;1.50;;
39300;SDS011;25019;42.626;23.380;2023-08-08T02:55:15;2.43;;;1.40;;
39300;SDS011;25019;42.626;23.380;2023-08-08T02:57:44;1.60;;;1.50;;
39300;SDS011;25019;42.626;23.380;2023-08-08T03:00:10;2.07;;;1.60;;
39300;SDS011;25019;42.626;23.380;2023-08-08T03:02:40;1.70;;;1.60;;
39300;SDS011;25019;42.626;23.380;2023-08-08T03:05:06;2.17;;;1.93;;
39300;SDS011;25019;42.626;23.380;2023-08-08T03:07:32;2.40;;;2.20;;
39300;SDS011;25019;42.626;23.380;2023-08-08T03:09:58;1.70;;;1.60;;
39300;SDS011;25019;42.626;23.380;2023-08-08T03:12:25;1.93;;;1.83;;
39300;SDS011;25019;42.626;23.380;2023-08-08T03:14:52;2.20;;;2.00;;
39300;SDS011;25019;42.626;23.380;2023-08-08T03:17:18;2.13;;;1.73;;
39300;SDS011;25019;42.626;23.380;2023-08-08T03:19:44;1.87;;;1.77;;
39300;SDS011;25019;42.626;23.380;2023-08-08T03:22:10;2.20;;;2.00;;
39300;SDS011;25019;42.626;23.380;2023-08-08T03:24:37;1.73;;;1.63;;
39300;SDS011;25019;42.626;23.380;2023-08-08T03:27:02;2.50;;;2.30;;
39300;SDS011;25019;42.626;23.380;2023-08-08T03:29:29;2.37;;;1.90;;
39300;SDS011;25019;42.626;23.380;2023-08-08T03:31:56;2.20;;;2.00;;
39300;SDS011;25019;42.626;23.380;2023-08-08T03:34:23;1.83;;;1.73;;
39300;SDS011;25019;42.626;23.380;2023-08-08T03:36:49;2.50;;;2.20;;
39300;SDS011;25019;42.626;23.380;2023-08-08T03:39:16;2.20;;;2.10;;
39300;SDS011;25019;42.626;23.380;2023-08-08T03:41:41;2.20;;;2.00;;
39300;SDS011;25019;42.626;23.380;2023-08-08T03:44:07;2.17;;;1.97;;
39300;SDS011;25019;42.626;23.380;2023-08-08T03:46:33;2.60;;;2.40;;
39300;SDS011;25019;42.626;23.380;2023-08-08T03:48:59;2.40;;;2.20;;
39300;SDS011;25019;42.626;23.380;2023-08-08T03:51:24;2.50;;;2.30;;
39300;SDS011;25019;42.626;23.380;2023-08-08T03:53:50;2.40;;;2.20;;
39300;SDS011;25019;42.626;23.380;2023-08-08T03:56:16;2.30;;;2.17;;
39300;SDS011;25019;42.626;23.380;2023-08-08T03:58:41;4.57;;;2.40;;
39300;SDS011;25019;42.626;23.380;2023-08-08T04:01:07;2.77;;;2.57;;
39300;SDS011;25019;42.626;23.380;2023-08-08T04:03:33;2.33;;;2.13;;
39300;SDS011;25019;42.626;23.380;2023-08-08T04:05:58;2.87;;;2.67;;
39300;SDS011;25019;42.626;23.380;2023-08-08T04:08:24;3.30;;;2.50;;
39300;SDS011;25019;42.626;23.380;2023-08-08T04:10:50;2.37;;;2.27;;
39300;SDS011;25019;42.626;23.380;2023-08-08T04:13:15;2.70;;;2.50;;
39300;SDS011;25019;42.626;23.380;2023-08-08T04:15:41;2.40;;;2.10;;
39300;SDS011;25019;42.626;23.380;2023-08-08T04:18:07;3.10;;;2.53;;
39300;SDS011;25019;42.626;23.380;2023-08-08T04:20:33;2.60;;;2.40;;
39300;SDS011;25019;42.626;23.380;2023-08-08T04:22:59;2.40;;;2.20;;
39300;SDS011;25019;42.626;23.380;2023-08-08T04:25:25;2.50;;;2.30;;
39300;SDS011;25019;42.626;23.380;2023-08-08T04:27:51;2.93;;;2.30;;
39300;SDS011;25019;42.626;23.380;2023-08-08T04:30:17;3.20;;;2.80;;
39300;SDS011;25019;42.626;23.380;2023-08-08T04:32:42;2.47;;;2.30;;
39300;SDS011;25019;42.626;23.380;2023-08-08T04:35:08;2.60;;;2.40;;
39300;SDS011;25019;42.626;23.380;2023-08-08T04:37:33;2.80;;;2.33;;
39300;SDS011;25019;42.626;23.380;2023-08-08T04:39:59;2.73;;;2.53;;
39300;SDS011;25019;42.626;23.380;2023-08-08T04:42:25;3.93;;;2.90;;
39300;SDS011;25019;42.626;23.380;2023-08-08T04:44:50;2.87;;;2.67;;
39300;SDS011;25019;42.626;23.380;2023-08-08T04:47:16;3.07;;;2.77;;
39300;SDS011;25019;42.626;23.380;2023-08-08T04:49:42;2.60;;;2.40;;
39300;SDS011;25019;42.626;23.380;2023-08-08T04:52:07;2.40;;;2.20;;
39300;SDS011;25019;42.626;23.380;2023-08-08T04:54:33;2.40;;;2.30;;
39300;SDS011;25019;42.626;23.380;2023-08-08T04:56:59;2.97;;;2.30;;
39300;SDS011;25019;42.626;23.380;2023-08-08T04:59:24;2.57;;;2.27;;
39300;SDS011;25019;42.626;23.380;2023-08-08T05:01:50;2.50;;;2.30;;
39300;SDS011;25019;42.626;23.380;2023-08-08T05:04:16;3.00;;;2.67;;
39300;SDS011;25019;42.626;23.380;2023-08-08T05:06:43;2.43;;;2.23;;
39300;SDS011;25019;42.626;23.380;2023-08-08T05:09:08;4.07;;;2.80;;
39300;SDS011;25019;42.626;23.380;2023-08-08T05:11:35;5.20;;;2.20;;
39300;SDS011;25019;42.626;23.380;2023-08-08T05:14:01;2.90;;;2.30;;
39300;SDS011;25019;42.626;23.380;2023-08-08T05:16:27;2.40;;;2.20;;
39300;SDS011;25019;42.626;23.380;2023-08-08T05:18:53;2.70;;;2.50;;
39300;SDS011;25019;42.626;23.380;2023-08-08T05:21:19;3.30;;;2.47;;
39300;SDS011;25019;42.626;23.380;2023-08-08T05:23:45;3.30;;;2.40;;
39300;SDS011;25019;42.626;23.380;2023-08-08T05:26:10;4.00;;;2.30;;
39300;SDS011;25019;42.626;23.380;2023-08-08T05:28:36;2.93;;;2.20;;
39300;SDS011;25019;42.626;23.380;2023-08-08T05:31:02;2.17;;;1.97;;
39300;SDS011;25019;42.626;23.380;2023-08-08T05:33:27;1.70;;;1.60;;
39300;SDS011;25019;42.626;23.380;2023-08-08T05:35:53;1.80;;;1.70;;
39300;SDS011;25019;42.626;23.380;2023-08-08T05:38:19;1.90;;;1.80;;
39300;SDS011;25019;42.626;23.380;2023-08-08T05:40:44;1.73;;;1.63;;
39300;SDS011;25019;42.626;23.380;2023-08-08T05:43:10;2.33;;;2.13;;
39300;SDS011;25019;42.626;23.380;2023-08-08T05:45:36;2.60;;;1.87;;
39300;SDS011;25019;42.626;23.380;2023-08-08T05:48:01;6.40;;;2.73;;
39300;SDS011;25019;42.626;23.380;2023-08-08T05:50:27;3.90;;;2.00;;
39300;SDS011;25019;42.626;23.380;2023-08-08T05:52:53;2.33;;;1.93;;
39300;SDS011;25019;42.626;23.380;2023-08-08T05:55:19;2.73;;;1.80;;
39300;SDS011;25019;42.626;23.380;2023-08-08T05:57:44;2.33;;;1.70;;
39300;SDS011;25019;42.626;23.380;2023-08-08T06:00:11;1.77;;;1.50;;
39300;SDS011;25019;42.626;23.380;2023-08-08T06:02:40;2.70;;;1.87;;
39300;SDS011;25019;42.626;23.380;2023-08-08T06:05:06;4.80;;;1.90;;
39300;SDS011;25019;42.626;23.380;2023-08-08T06:07:32;2.47;;;2.00;;
39300;SDS011;25019;42.626;23.380;2023-08-08T06:09:58;2.83;;;1.90;;
39300;SDS011;25019;42.626;23.380;2023-08-08T06:12:24;3.30;;;2.20;;
39300;SDS011;25019;42.626;23.380;2023-08-08T06:14:49;4.80;;;2.97;;
39300;SDS011;25019;42.626;23.380;2023-08-08T06:17:15;3.80;;;2.77;;
39300;SDS011;25019;42.626;23.380;2023-08-08T06:19:41;2.80;;;2.60;;
39300;SDS011;25019;42.626;23.380;2023-08-08T06:22:06;3.60;;;3.13;;
39300;SDS011;25019;42.626;23.380;2023-08-08T06:24:32;3.10;;;2.07;;
39300;SDS011;25019;42.626;23.380;2023-08-08T06:26:58;4.70;;;2.50;;
39300;SDS011;25019;42.626;23.380;2023-08-08T06:29:23;4.30;;;2.80;;
39300;SDS011;25019;42.626;23.380;2023-08-08T06:31:49;2.83;;;2.57;;
39300;SDS011;25019;42.626;23.380;2023-08-08T06:34:15;4.63;;;3.17;;
39300;SDS011;25019;42.626;23.380;2023-08-08T06:36:41;3.00;;;2.70;;
39300;SDS011;25019;42.626;23.380;2023-08-08T06:39:07;2.33;;;2.13;;
39300;SDS011;25019;42.626;23.380;2023-08-08T06:41:32;2.83;;;2.50;;
39300;SDS011;25019;42.626;23.380;2023-08-08T06:43:58;6.87;;;3.13;;
39300;SDS011;25019;42.626;23.380;2023-08-08T06:46:24;3.10;;;2.30;;
39300;SDS011;25019;42.626;23.380;2023-08-08T06:48:49;3.63;;;2.20;;
39300;SDS011;25019;42.626;23.380;2023-08-08T06:51:18;2.73;;;2.10;;
39300;SDS011;25019;42.626;23.380;2023-08-08T06:53:43;2.57;;;2.13;;
39300;SDS011;25019;42.626;23.380;2023-08-08T06:56:09;2.60;;;1.77;;
39300;SDS011;25019;42.626;23.380;2023-08-08T06:58:35;2.10;;;1.90;;
39300;SDS011;25019;42.626;23.380;2023-08-08T07:01:01;2.03;;;1.93;;
39300;SDS011;25019;42.626;23.380;2023-08-08T07:03:28;2.03;;;1.83;;
39300;SDS011;25019;42.626;23.380;2023-08-08T07:05:53;2.70;;;1.90;;
39300;SDS011;25019;42.626;23.380;2023-08-08T07:08:19;4.20;;;2.50;;
39300;SDS011;25019;42.626;23.380;2023-08-08T07:10:45;2.13;;;1.40;;
39300;SDS011;25019;42.626;23.380;2023-08-08T07:13:10;1.93;;;1.40;;
39300;SDS011;25019;42.626;23.380;2023-08-08T07:15:36;4.03;;;1.47;;
39300;SDS011;25019;42.626;23.380;2023-08-08T07:18:03;2.10;;;1.63;;
39300;SDS011;25019;42.626;23.380;2023-08-08T07:20:29;2.63;;;1.70;;
39300;SDS011;25019;42.626;23.380;2023-08-08T07:22:55;2.43;;;1.60;;
39300;SDS011;25019;42.626;23.380;2023-08-08T07:25:20;2.03;;;1.60;;
39300;SDS011;25019;42.626;23.380;2023-08-08T07:27:46;1.67;;;1.40;;
39300;SDS011;25019;42.626;23.380;2023-08-08T07:30:12;2.07;;;1.97;;
39300;SDS011;25019;42.626;23.380;2023-08-08T07:32:38;3.10;;;1.50;;
39300;SDS011;25019;42.626;23.380;2023-08-08T07:35:04;1.57;;;1.03;;
39300;SDS011;25019;42.626;23.380;2023-08-08T07:37:33;2.37;;;1.30;;
39300;SDS011;25019;42.626;23.380;2023-08-08T07:39:59;1.20;;;1.10;;
39300;SDS011;25019;42.626;23.380;2023-08-08T07:42:26;1.63;;;1.20;;
39300;SDS011;25019;42.626;23.380;2023-08-08T07:44:51;1.30;;;1.20;;
39300;SDS011;25019;42.626;23.380;2023-08-08T07:47:17;1.77;;;1.03;;
39300;SDS011;25019;42.626;23.380;2023-08-08T07:49:42;1.93;;;1.30;;
39300;SDS011;25019;42.626;23.380;2023-08-08T07:52:08;1.60;;;1.10;;
39300;SDS011;25019;42.626;23.380;2023-08-08T07:54:34;1.33;;;1.23;;
39300;SDS011;25019;42.626;23.380;2023-08-08T07:57:00;1.80;;;1.10;;
39300;SDS011;25019;42.626;23.380;2023-08-08T07:59:26;2.97;;;1.60;;
39300;SDS011;25019;42.626;23.380;2023-08-08T08:01:51;2.53;;;1.53;;
39300;SDS011;25019;42.626;23.380;2023-08-08T08:04:17;1.00;;;0.87;;
39300;SDS011;25019;42.626;23.380;2023-08-08T08:06:43;2.67;;;1.20;;
39300;SDS011;25019;42.626;23.380;2023-08-08T08:09:08;1.27;;;1.17;;
39300;SDS011;25019;42.626;23.380;2023-08-08T08:11:34;1.47;;;1.10;;
39300;SDS011;25019;42.626;23.380;2023-08-08T08:13:59;2.60;;;1.20;;
39300;SDS011;25019;42.626;23.380;2023-08-08T08:16:25;1.80;;;1.00;;
39300;SDS011;25019;42.626;23.380;2023-08-08T08:18:51;2.20;;;1.20;;
39300;SDS011;25019;42.626;23.380;2023-08-08T08:21:16;3.10;;;1.20;;
39300;SDS011;25019;42.626;23.380;2023-08-08T08:23:43;1.33;;;0.97;;
39300;SDS011;25019;42.626;23.380;2023-08-08T08:26:09;1.67;;;1.00;;
39300;SDS011;25019;42.626;23.380;2023-08-08T08:28:35;4.17;;;1.30;;
39300;SDS011;25019;42.626;23.380;2023-08-08T08:31:07;1.90;;;1.20;;
39300;SDS011;25019;42.626;23.380;2023-08-08T08:33:34;3.03;;;1.13;;
39300;SDS011;25019;42.626;23.380;2023-08-08T08:35:59;5.47;;;2.67;;
39300;SDS011;25019;42.626;23.380;2023-08-08T08:38:25;1.50;;;1.40;;
39300;SDS011;25019;42.626;23.380;2023-08-08T08:40:50;4.80;;;2.03;;
39300;SDS011;25019;42.626;23.380;2023-08-08T08:43:21;2.57;;;1.70;;
39300;SDS011;25019;42.626;23.380;2023-08-08T08:45:52;2.47;;;1.70;;
39300;SDS011;25019;42.626;23.380;2023-08-08T08:48:19;1.30;;;1.20;;
39300;SDS011;25019;42.626;23.380;2023-08-08T08:50:47;2.43;;;1.67;;
39300;SDS011;25019;42.626;23.380;2023-08-08T08:53:14;1.63;;;1.30;;
39300;SDS011;25019;42.626;23.380;2023-08-08T08:55:40;3.03;;;1.80;;
39300;SDS011;25019;42.626;23.380;2023-08-08T08:58:06;3.07;;;1.57;;
39300;SDS011;25019;42.626;23.380;2023-08-08T09:00:33;2.37;;;2.00;;
39300;SDS011;25019;42.626;23.380;2023-08-08T09:03:00;2.40;;;1.50;;
39300;SDS011;25019;42.626;23.380;2023-08-08T09:05:25;3.50;;;2.00;;
39300;SDS011;25019;42.626;23.380;2023-08-08T09:07:51;3.07;;;1.93;;
39300;SDS011;25019;42.626;23.380;2023-08-08T09:10:17;3.83;;;1.90;;
39300;SDS011;25019;42.626;23.380;2023-08-08T09:12:44;2.60;;;1.50;;
39300;SDS011;25019;42.626;23.380;2023-08-08T09:15:13;3.27;;;1.80;;
39300;SDS011;25019;42.626;23.380;2023-08-08T09:17:42;2.27;;;1.80;;
39300;SDS011;25019;42.626;23.380;2023-08-08T09:20:09;2.30;;;1.40;;
39300;SDS011;25019;42.626;23.380;2023-08-08T09:22:38;1.90;;;1.60;;
39300;SDS011;25019;42.626;23.380;2023-08-08T09:25:04;1.73;;;1.63;;
39300;SDS011;25019;42.626;23.380;2023-08-08T09:27:31;1.53;;;1.43;;
39300;SDS011;25019;42.626;23.380;2023-08-08T09:29:57;2.53;;;1.33;;
39300;SDS011;25019;42.626;23.380;2023-08-08T09:32:23;1.60;;;1.40;;
39300;SDS011;25019;42.626;23.380;2023-08-08T09:34:55;1.90;;;1.20;;
39300;SDS011;25019;42.626;23.380;2023-08-08T09:37:21;2.37;;;1.40;;
39300;SDS011;25019;42.626;23.380;2023-08-08T09:39:55;1.70;;;1.30;;
39300;SDS011;25019;42.626;23.380;2023-08-08T09:42:25;2.30;;;1.60;;
39300;SDS011;25019;42.626;23.380;2023-08-08T09:44:52;2.43;;;2.10;;
39300;SDS011;25019;42.626;23.380;2023-08-08T09:47:18;3.20;;;1.80;;
39300;SDS011;25019;42.626;23.380;2023-08-08T09:49:46;2.73;;;1.90;;
39300;SDS011;25019;42.626;23.380;2023-08-08T09:52:12;2.40;;;1.43;;
39300;SDS011;25019;42.626;23.380;2023-08-08T09:54:38;2.07;;;1.40;;
39300;SDS011;25019;42.626;23.380;2023-08-08T09:57:06;1.50;;;1.40;;
39300;SDS011;25019;42.626;23.380;2023-08-08T09:59:32;1.67;;;1.57;;
39300;SDS011;25019;42.626;23.380;2023-08-08T10:01:57;2.00;;;1.87;;
39300;SDS011;25019;42.626;23.380;2023-08-08T10:04:24;2.27;;;1.60;;
39300;SDS011;25019;42.626;23.380;2023-08-08T10:06:51;1.33;;;1.23;;
39300;SDS011;25019;42.626;23.380;2023-08-08T10:09:17;1.73;;;1.50;;
39300;SDS011;25019;42.626;23.380;2023-08-08T10:11:43;2.03;;;1.83;;
39300;SDS011;25019;42.626;23.380;2023-08-08T10:14:09;1.90;;;1.77;;
39300;SDS011;25019;42.626;23.380;2023-08-08T10:16:39;3.33;;;1.90;;
39300;SDS011;25019;42.626;23.380;2023-08-08T10:19:04;2.73;;;1.97;;
39300;SDS011;25019;42.626;23.380;2023-08-08T10:21:34;2.00;;;1.77;;
39300;SDS011;25019;42.626;23.380;2023-08-08T10:24:07;2.30;;;1.50;;
39300;SDS011;25019;42.626;23.380;2023-08-08T10:26:50;2.10;;;1.47;;
39300;SDS011;25019;42.626;23.380;2023-08-08T10:29:27;3.10;;;1.50;;
39300;SDS011;25019;42.626;23.380;2023-08-08T10:32:01;3.00;;;1.50;;
39300;SDS011;25019;42.626;23.380;2023-08-08T10:34:41;4.87;;;1.90;;
39300;SDS011;25019;42.626;23.380;2023-08-08T10:37:11;2.17;;;1.50;;
39300;SDS011;25019;42.626;23.380;2023-08-08T10:39:54;1.90;;;1.80;;
39300;SDS011;25019;42.626;23.380;2023-08-08T10:42:24;1.63;;;1.53;;
39300;SDS011;25019;42.626;23.380;2023-08-08T10:44:55;4.27;;;1.60;;
39300;SDS011;25019;42.626;23.380;2023-08-08T10:47:25;2.17;;;1.60;;
39300;SDS011;25019;42.626;23.380;2023-08-08T10:50:02;1.93;;;1.70;;
39300;SDS011;25019;42.626;23.380;2023-08-08T10:52:30;1.40;;;1.30;;
39300;SDS011;25019;42.626;23.380;2023-08-08T10:54:56;1.50;;;1.40;;
39300;SDS011;25019;42.626;23.380;2023-08-08T10:57:25;2.10;;;1.50;;
39300;SDS011;25019;42.626;23.380;2023-08-08T10:59:52;1.60;;;1.50;;
39300;SDS011;25019;42.626;23.380;2023-08-08T11:02:19;2.67;;;1.50;;
39300;SDS011;25019;42.626;23.380;2023-08-08T11:04:45;1.60;;;1.50;;
39300;SDS011;25019;42.626;23.380;2023-08-08T11:07:11;1.40;;;1.30;;
39300;SDS011;25019;42.626;23.380;2023-08-08T11:09:39;1.80;;;1.70;;
39300;SDS011;25019;42.626;23.380;2023-08-08T11:12:04;2.73;;;1.40;;
39300;SDS011;25019;42.626;23.380;2023-08-08T11:14:30;5.27;;;1.30;;
39300;SDS011;25019;42.626;23.380;2023-08-08T11:16:56;2.20;;;1.77;;
39300;SDS011;25019;42.626;23.380;2023-08-08T11:19:21;1.73;;;1.40;;
39300;SDS011;25019;42.626;23.380;2023-08-08T11:21:48;1.40;;;1.30;;
39300;SDS011;25019;42.626;23.380;2023-08-08T11:24:14;1.57;;;1.17;;
39300;SDS011;25019;42.626;23.380;2023-08-08T11:26:41;1.40;;;1.20;;
39300;SDS011;25019;42.626;23.380;2023-08-08T11:29:10;1.30;;;1.20;;
39300;SDS011;25019;42.626;23.380;2023-08-08T11:31:36;1.00;;;1.00;;
39300;SDS011;25019;42.626;23.380;2023-08-08T11:34:03;1.80;;;1.70;;
39300;SDS011;25019;42.626;23.380;2023-08-08T11:36:30;1.20;;;1.10;;
39300;SDS011;25019;42.626;23.380;2023-08-08T11:39:00;4.53;;;2.10;;
39300;SDS011;25019;42.626;23.380;2023-08-08T11:41:33;2.03;;;1.70;;
39300;SDS011;25019;42.626;23.380;2023-08-08T11:44:01;1.90;;;1.50;;
39300;SDS011;25019;42.626;23.380;2023-08-08T11:46:30;3.50;;;1.50;;
39300;SDS011;25019;42.626;23.380;2023-08-08T11:49:02;2.70;;;1.10;;
39300;SDS011;25019;42.626;23.380;2023-08-08T11:51:29;1.27;;;0.90;;
39300;SDS011;25019;42.626;23.380;2023-08-08T11:53:54;1.23;;;1.00;;
39300;SDS011;25019;42.626;23.380;2023-08-08T11:56:20;1.90;;;1.30;;
39300;SDS011;25019;42.626;23.380;2023-08-08T11:58:50;1.20;;;1.10;;
39300;SDS011;25019;42.626;23.380;2023-08-08T12:01:21;1.87;;;1.00;;
39300;SDS011;25019;42.626;23.380;2023-08-08T12:03:50;1.30;;;1.00;;
39300;SDS011;25019;42.626;23.380;2023-08-08T12:06:16;1.37;;;1.27;;
39300;SDS011;25019;42.626;23.380;2023-08-08T12:08:43;2.40;;;1.20;;
39300;SDS011;25019;42.626;23.380;2023-08-08T12:11:12;1.77;;;1.40;;
39300;SDS011;25019;42.626;23.380;2023-08-08T12:13:40;3.43;;;1.43;;
39300;SDS011;25019;42.626;23.380;2023-08-08T12:16:10;1.50;;;1.40;;
39300;SDS011;25019;42.626;23.380;2023-08-08T12:18:38;2.03;;;1.60;;
39300;SDS011;25019;42.626;23.380;2023-08-08T12:21:05;1.97;;;1.03;;
39300;SDS011;25019;42.626;23.380;2023-08-08T12:23:32;1.50;;;1.40;;
39300;SDS011;25019;42.626;23.380;2023-08-08T12:25:58;1.27;;;1.17;;
39300;SDS011;25019;42.626;23.380;2023-08-08T12:28:24;2.90;;;1.23;;
39300;SDS011;25019;42.626;23.380;2023-08-08T12:30:50;1.50;;;1.40;;
39300;SDS011;25019;42.626;23.380;2023-08-08T12:33:16;1.37;;;1.20;;
39300;SDS011;25019;42.626;23.380;2023-08-08T12:35:42;1.27;;;1.17;;
39300;SDS011;25019;42.626;23.380;2023-08-08T12:38:07;1.33;;;1.23;;
39300;SDS011;25019;42.626;23.380;2023-08-08T12:40:33;2.93;;;1.20;;
39300;SDS011;25019;42.626;23.380;2023-08-08T12:42:59;2.53;;;1.10;;
39300;SDS011;25019;42.626;23.380;2023-08-08T12:45:25;1.93;;;1.40;;
39300;SDS011;25019;42.626;23.380;2023-08-08T12:47:50;1.57;;;1.47;;
39300;SDS011;25019;42.626;23.380;2023-08-08T12:50:16;1.20;;;1.07;;
39300;SDS011;25019;42.626;23.380;2023-08-08T12:52:42;2.47;;;1.20;;
39300;SDS011;25019;42.626;23.380;2023-08-08T12:55:08;1.67;;;1.10;;
39300;SDS011;25019;42.626;23.380;2023-08-08T12:57:34;2.07;;;1.20;;
39300;SDS011;25019;42.626;23.380;2023-08-08T13:00:00;1.30;;;1.20;;
39300;SDS011;25019;42.626;23.380;2023-08-08T13:02:25;1.30;;;1.20;;
39300;SDS011;25019;42.626;23.380;2023-08-08T13:04:51;1.57;;;1.30;;
39300;SDS011;25019;42.626;23.380;2023-08-08T13:07:17;2.10;;;1.50;;
39300;SDS011;25019;42.626;23.380;2023-08-08T13:09:42;1.30;;;1.20;;
39300;SDS011;25019;42.626;23.380;2023-08-08T13:12:08;3.70;;;1.70;;
39300;SDS011;25019;42.626;23.380;2023-08-08T13:14:34;1.33;;;1.20;;
39300;SDS011;25019;42.626;23.380;2023-08-08T13:16:59;1.57;;;1.00;;
39300;SDS011;25019;42.626;23.380;2023-08-08T13:19:25;1.63;;;1.37;;
39300;SDS011;25019;42.626;23.380;2023-08-08T13:21:51;2.53;;;1.20;;
39300;SDS011;25019;42.626;23.380;2023-08-08T13:24:19;2.77;;;1.10;;
39300;SDS011;25019;42.626;23.380;2023-08-08T13:26:46;1.10;;;1.00;;
39300;SDS011;25019;42.626;23.380;2023-08-08T13:29:11;2.17;;;1.30;;
39300;SDS011;25019;42.626;23.380;2023-08-08T13:31:37;1.23;;;1.13;;
39300;SDS011;25019;42.626;23.380;2023-08-08T13:34:02;1.47;;;1.37;;
39300;SDS011;25019;42.626;23.380;2023-08-08T13:36:29;1.53;;;1.33;;
39300;SDS011;25019;42.626;23.380;2023-08-08T13:38:54;1.40;;;1.30;;
39300;SDS011;25019;42.626;23.380;2023-08-08T13:41:20;4.13;;;2.00;;
39300;SDS011;25019;42.626;23.380;2023-08-08T13:43:45;1.10;;;1.00;;
39300;SDS011;25019;42.626;23.380;2023-08-08T13:46:11;1.17;;;1.10;;
39300;SDS011;25019;42.626;23.380;2023-08-08T13:48:37;2.93;;;1.20;;
39300;SDS011;25019;42.626;23.380;2023-08-08T13:51:02;1.40;;;1.30;;
39300;SDS011;25019;42.626;23.380;2023-08-08T13:53:28;2.63;;;1.60;;
39300;SDS011;25019;42.626;23.380;2023-08-08T13:55:55;1.27;;;1.10;;
39300;SDS011;25019;42.626;23.380;2023-08-08T13:58:20;0.93;;;0.93;;
39300;SDS011;25019;42.626;23.380;2023-08-08T14:00:50;0.90;;;0.90;;
39300;SDS011;25019;42.626;23.380;2023-08-08T14:03:16;1.20;;;1.10;;
39300;SDS011;25019;42.626;23.380;2023-08-08T14:05:42;1.20;;;1.10;;
39300;SDS011;25019;42.626;23.380;2023-08-08T14:08:08;3.63;;;1.30;;
39300;SDS011;25019;42.626;23.380;2023-08-08T14:10:35;2.00;;;1.10;;
39300;SDS011;25019;42.626;23.380;2023-08-08T14:13:01;1.30;;;1.20;;
39300;SDS011;25019;42.626;23.380;2023-08-08T14:15:28;1.83;;;1.33;;
39300;SDS011;25019;42.626;23.380;2023-08-08T14:18:05;1.53;;;1.43;;
39300;SDS011;25019;42.626;23.380;2023-08-08T14:20:31;2.60;;;1.17;;
39300;SDS011;25019;42.626;23.380;2023-08-08T14:22:56;1.43;;;1.23;;
39300;SDS011;25019;42.626;23.380;2023-08-08T14:25:22;1.60;;;1.50;;
39300;SDS011;25019;42.626;23.380;2023-08-08T14:27:48;3.63;;;2.60;;
39300;SDS011;25019;42.626;23.380;2023-08-08T14:30:13;3.93;;;1.70;;